sensor_id;sensor_type;location;lat;lon;timestamp;temperature;humidity
65231;DHT22;51813;40.666;16.602;2023-08-24T00:00:19;27.40;54.40
65231;DHT22;51813;40.666;16.602;2023-08-24T00:02:45;27.50;54.30
65231;DHT22;51813;40.666;16.602;2023-08-24T00:05:11;27.50;54.40
65231;DHT22;51813;40.666;16.602;2023-08-24T00:07:36;27.40;54.50
65231;DHT22;51813;40.666;16.602;2023-08-24T00:10:02;27.40;54.70
65231;DHT22;51813;40.666;16.602;2023-08-24T00:12:29;27.40;54.80
65231;DHT22;51813;40.666;16.602;2023-08-24T00:14:55;27.40;54.70
65231;DHT22;51813;40.666;16.602;2023-08-24T00:17:21;27.40;54.50
65231;DHT22;51813;40.666;16.602;2023-08-24T00:19:48;27.40;54.70
65231;DHT22;51813;40.666;16.602;2023-08-24T00:22:14;27.40;54.70
65231;DHT22;51813;40.666;16.602;2023-08-24T00:24:40;27.50;54.60
65231;DHT22;51813;40.666;16.602;2023-08-24T00:27:05;27.50;54.50
65231;DHT22;51813;40.666;16.602;2023-08-24T00:29:31;27.50;54.70
65231;DHT22;51813;40.666;16.602;2023-08-24T00:31:57;27.40;54.80
65231;DHT22;51813;40.666;16.602;2023-08-24T00:34:23;27.50;55.00
65231;DHT22;51813;40.666;16.602;2023-08-24T00:36:48;27.50;54.80
65231;DHT22;51813;40.666;16.602;2023-08-24T00:39:14;27.40;54.90
65231;DHT22;51813;40.666;16.602;2023-08-24T00:41:42;27.40;55.00
65231;DHT22;51813;40.666;16.602;2023-08-24T00:44:07;27.40;55.20
65231;DHT22;51813;40.666;16.602;2023-08-24T00:46:34;27.30;55.10
65231;DHT22;51813;40.666;16.602;2023-08-24T00:49:00;27.30;55.10
65231;DHT22;51813;40.666;16.602;2023-08-24T00:51:26;27.40;55.00
65231;DHT22;51813;40.666;16.602;2023-08-24T00:53:52;27.50;54.80
65231;DHT22;51813;40.666;16.602;2023-08-24T00:56:18;27.40;54.70
65231;DHT22;51813;40.666;16.602;2023-08-24T00:58:50;27.40;54.60
65231;DHT22;51813;40.666;16.602;2023-08-24T01:01:17;27.40;54.60
65231;DHT22;51813;40.666;16.602;2023-08-24T01:03:43;27.30;54.60
65231;DHT22;51813;40.666;16.602;2023-08-24T01:06:09;27.30;54.50
65231;DHT22;51813;40.666;16.602;2023-08-24T01:08:35;27.30;54.60
65231;DHT22;51813;40.666;16.602;2023-08-24T01:16:29;27.30;54.40
65231;DHT22;51813;40.666;16.602;2023-08-24T01:18:57;27.30;54.50
65231;DHT22;51813;40.666;16.602;2023-08-24T01:21:26;27.30;54.30
65231;DHT22;51813;40.666;16.602;2023-08-24T01:24:26;27.30;54.50
65231;DHT22;51813;40.666;16.602;2023-08-24T01:26:56;27.30;54.50
65231;DHT22;51813;40.666;16.602;2023-08-24T01:29:22;27.30;54.30
65231;DHT22;51813;40.666;16.602;2023-08-24T01:31:48;27.40;53.80
65231;DHT22;51813;40.666;16.602;2023-08-24T01:34:17;27.40;54.20
65231;DHT22;51813;40.666;16.602;2023-08-24T01:36:43;27.40;53.80
65231;DHT22;51813;40.666;16.602;2023-08-24T01:40:00;27.50;53.60
65231;DHT22;51813;40.666;16.602;2023-08-24T01:42:02;27.40;53.40
65231;DHT22;51813;40.666;16.602;2023-08-24T01:44:35;27.50;53.80
65231;DHT22;51813;40.666;16.602;2023-08-24T01:47:04;27.50;53.20
65231;DHT22;51813;40.666;16.602;2023-08-24T01:49:31;27.50;53.50
65231;DHT22;51813;40.666;16.602;2023-08-24T01:51:58;27.50;53.60
65231;DHT22;51813;40.666;16.602;2023-08-24T01:54:24;27.60;53.40
65231;DHT22;51813;40.666;16.602;2023-08-24T01:56:50;27.60;53.00
65231;DHT22;51813;40.666;16.602;2023-08-24T01:59:16;27.70;52.70
65231;DHT22;51813;40.666;16.602;2023-08-24T02:01:41;27.50;52.80
65231;DHT22;51813;40.666;16.602;2023-08-24T02:04:07;27.50;53.20
65231;DHT22;51813;40.666;16.602;2023-08-24T02:06:33;27.60;52.80
65231;DHT22;51813;40.666;16.602;2023-08-24T02:08:58;27.60;53.20
65231;DHT22;51813;40.666;16.602;2023-08-24T02:11:24;27.50;53.20
65231;DHT22;51813;40.666;16.602;2023-08-24T02:13:50;27.60;53.00
65231;DHT22;51813;40.666;16.602;2023-08-24T02:16:15;27.60;53.00
65231;DHT22;51813;40.666;16.602;2023-08-24T02:18:41;27.60;53.00
65231;DHT22;51813;40.666;16.602;2023-08-24T02:21:08;27.60;53.00
65231;DHT22;51813;40.666;16.602;2023-08-24T02:23:34;27.50;52.80
65231;DHT22;51813;40.666;16.602;2023-08-24T02:26:00;27.50;52.90
65231;DHT22;51813;40.666;16.602;2023-08-24T02:28:25;27.50;53.30
65231;DHT22;51813;40.666;16.602;2023-08-24T02:30:51;27.60;52.90
65231;DHT22;51813;40.666;16.602;2023-08-24T02:33:17;27.50;53.00
65231;DHT22;51813;40.666;16.602;2023-08-24T02:35:42;27.40;53.00
65231;DHT22;51813;40.666;16.602;2023-08-24T02:38:10;27.30;53.30
65231;DHT22;51813;40.666;16.602;2023-08-24T02:40:36;27.40;53.10
65231;DHT22;51813;40.666;16.602;2023-08-24T02:43:01;27.30;53.50
65231;DHT22;51813;40.666;16.602;2023-08-24T02:45:28;27.30;53.30
65231;DHT22;51813;40.666;16.602;2023-08-24T02:47:53;27.30;53.50
65231;DHT22;51813;40.666;16.602;2023-08-24T02:50:19;27.30;53.40
65231;DHT22;51813;40.666;16.602;2023-08-24T02:52:44;27.30;53.50
65231;DHT22;51813;40.666;16.602;2023-08-24T02:55:11;27.20;53.80
65231;DHT22;51813;40.666;16.602;2023-08-24T02:57:37;27.20;53.60
65231;DHT22;51813;40.666;16.602;2023-08-24T03:00:04;27.20;53.70
65231;DHT22;51813;40.666;16.602;2023-08-24T03:02:32;27.20;53.70
65231;DHT22;51813;40.666;16.602;2023-08-24T03:04:57;27.20;53.70
65231;DHT22;51813;40.666;16.602;2023-08-24T03:07:24;27.20;53.90
65231;DHT22;51813;40.666;16.602;2023-08-24T03:09:49;27.20;53.80
65231;DHT22;51813;40.666;16.602;2023-08-24T03:12:15;27.20;53.90
65231;DHT22;51813;40.666;16.602;2023-08-24T03:14:41;27.10;54.00
65231;DHT22;51813;40.666;16.602;2023-08-24T03:17:06;27.20;53.80
65231;DHT22;51813;40.666;16.602;2023-08-24T03:19:32;27.20;53.70
65231;DHT22;51813;40.666;16.602;2023-08-24T03:21:58;27.30;53.90
65231;DHT22;51813;40.666;16.602;2023-08-24T03:24:24;27.30;53.50
65231;DHT22;51813;40.666;16.602;2023-08-24T03:26:50;27.30;53.70
65231;DHT22;51813;40.666;16.602;2023-08-24T03:29:16;27.30;53.50
65231;DHT22;51813;40.666;16.602;2023-08-24T03:31:41;27.30;53.50
65231;DHT22;51813;40.666;16.602;2023-08-24T03:34:07;27.30;53.60
65231;DHT22;51813;40.666;16.602;2023-08-24T03:36:32;27.20;53.60
65231;DHT22;51813;40.666;16.602;2023-08-24T03:38:58;27.20;53.90
65231;DHT22;51813;40.666;16.602;2023-08-24T03:41:24;27.20;53.90
65231;DHT22;51813;40.666;16.602;2023-08-24T03:43:49;27.30;53.50
65231;DHT22;51813;40.666;16.602;2023-08-24T03:46:15;27.30;53.50
65231;DHT22;51813;40.666;16.602;2023-08-24T03:48:41;27.30;53.60
65231;DHT22;51813;40.666;16.602;2023-08-24T03:51:07;27.20;53.60
65231;DHT22;51813;40.666;16.602;2023-08-24T03:53:32;27.40;53.50
65231;DHT22;51813;40.666;16.602;2023-08-24T03:55:58;27.20;53.40
65231;DHT22;51813;40.666;16.602;2023-08-24T03:58:24;27.20;53.60
65231;DHT22;51813;40.666;16.602;2023-08-24T04:00:49;27.30;53.30
65231;DHT22;51813;40.666;16.602;2023-08-24T04:03:15;27.20;53.50
65231;DHT22;51813;40.666;16.602;2023-08-24T04:05:42;27.10;53.90
65231;DHT22;51813;40.666;16.602;2023-08-24T04:08:08;27.10;53.90
65231;DHT22;51813;40.666;16.602;2023-08-24T04:10:33;27.20;53.80
65231;DHT22;51813;40.666;16.602;2023-08-24T04:12:59;27.30;53.40
65231;DHT22;51813;40.666;16.602;2023-08-24T04:15:25;27.30;53.80
65231;DHT22;51813;40.666;16.602;2023-08-24T04:17:50;27.20;53.70
65231;DHT22;51813;40.666;16.602;2023-08-24T04:20:16;27.10;54.10
65231;DHT22;51813;40.666;16.602;2023-08-24T04:22:42;27.20;53.50
65231;DHT22;51813;40.666;16.602;2023-08-24T04:25:08;27.00;53.70
65231;DHT22;51813;40.666;16.602;2023-08-24T04:27:34;26.90;54.10
65231;DHT22;51813;40.666;16.602;2023-08-24T04:30:00;27.00;54.40
65231;DHT22;51813;40.666;16.602;2023-08-24T04:32:27;27.20;53.90
65231;DHT22;51813;40.666;16.602;2023-08-24T04:34:53;27.30;53.80
65231;DHT22;51813;40.666;16.602;2023-08-24T04:37:19;27.30;53.50
65231;DHT22;51813;40.666;16.602;2023-08-24T04:39:45;27.30;53.50
65231;DHT22;51813;40.666;16.602;2023-08-24T04:42:11;27.40;53.50
65231;DHT22;51813;40.666;16.602;2023-08-24T04:44:37;27.40;53.40
65231;DHT22;51813;40.666;16.602;2023-08-24T04:47:03;27.40;53.50
65231;DHT22;51813;40.666;16.602;2023-08-24T04:49:30;27.40;53.30
65231;DHT22;51813;40.666;16.602;2023-08-24T04:51:56;27.40;53.40
65231;DHT22;51813;40.666;16.602;2023-08-24T04:54:21;27.40;53.50
65231;DHT22;51813;40.666;16.602;2023-08-24T04:56:47;27.40;53.40
65231;DHT22;51813;40.666;16.602;2023-08-24T04:59:13;27.40;53.40
65231;DHT22;51813;40.666;16.602;2023-08-24T05:01:39;27.40;53.40
65231;DHT22;51813;40.666;16.602;2023-08-24T05:04:05;27.40;53.40
65231;DHT22;51813;40.666;16.602;2023-08-24T05:06:30;27.40;53.20
65231;DHT22;51813;40.666;16.602;2023-08-24T05:08:56;27.30;53.30
65231;DHT22;51813;40.666;16.602;2023-08-24T05:11:23;27.30;53.50
65231;DHT22;51813;40.666;16.602;2023-08-24T05:13:54;27.20;53.50
65231;DHT22;51813;40.666;16.602;2023-08-24T05:16:21;27.20;53.50
65231;DHT22;51813;40.666;16.602;2023-08-24T05:18:46;27.20;53.60
65231;DHT22;51813;40.666;16.602;2023-08-24T05:21:12;27.10;53.70
65231;DHT22;51813;40.666;16.602;2023-08-24T05:23:38;27.10;54.10
65231;DHT22;51813;40.666;16.602;2023-08-24T05:26:04;27.20;53.70
65231;DHT22;51813;40.666;16.602;2023-08-24T05:28:30;27.20;53.40
65231;DHT22;51813;40.666;16.602;2023-08-24T05:30:57;27.10;53.70
65231;DHT22;51813;40.666;16.602;2023-08-24T05:33:24;27.10;53.80
65231;DHT22;51813;40.666;16.602;2023-08-24T05:35:51;27.20;53.70
65231;DHT22;51813;40.666;16.602;2023-08-24T05:38:17;27.20;53.80
65231;DHT22;51813;40.666;16.602;2023-08-24T05:40:45;27.20;53.50
65231;DHT22;51813;40.666;16.602;2023-08-24T05:43:12;27.00;53.90
65231;DHT22;51813;40.666;16.602;2023-08-24T05:45:38;27.00;54.10
65231;DHT22;51813;40.666;16.602;2023-08-24T05:48:06;27.10;53.90
65231;DHT22;51813;40.666;16.602;2023-08-24T05:50:32;27.10;54.10
65231;DHT22;51813;40.666;16.602;2023-08-24T05:52:58;27.20;53.90
65231;DHT22;51813;40.666;16.602;2023-08-24T05:55:24;27.30;53.30
65231;DHT22;51813;40.666;16.602;2023-08-24T05:57:49;27.30;53.60
65231;DHT22;51813;40.666;16.602;2023-08-24T06:00:15;27.40;53.40
65231;DHT22;51813;40.666;16.602;2023-08-24T06:02:41;27.40;53.50
65231;DHT22;51813;40.666;16.602;2023-08-24T06:05:08;27.40;53.50
65231;DHT22;51813;40.666;16.602;2023-08-24T06:07:34;27.40;53.70
65231;DHT22;51813;40.666;16.602;2023-08-24T06:10:00;27.40;53.60
65231;DHT22;51813;40.666;16.602;2023-08-24T06:12:26;27.50;53.40
65231;DHT22;51813;40.666;16.602;2023-08-24T06:14:52;27.50;53.30
65231;DHT22;51813;40.666;16.602;2023-08-24T06:17:18;27.40;53.60
65231;DHT22;51813;40.666;16.602;2023-08-24T06:19:43;27.50;53.70
65231;DHT22;51813;40.666;16.602;2023-08-24T06:22:09;27.40;53.20
65231;DHT22;51813;40.666;16.602;2023-08-24T06:24:35;27.20;53.90
65231;DHT22;51813;40.666;16.602;2023-08-24T06:27:01;27.30;53.80
65231;DHT22;51813;40.666;16.602;2023-08-24T06:29:30;27.40;53.80
65231;DHT22;51813;40.666;16.602;2023-08-24T06:31:56;27.40;53.60
65231;DHT22;51813;40.666;16.602;2023-08-24T06:34:22;27.40;53.70
65231;DHT22;51813;40.666;16.602;2023-08-24T06:36:49;27.40;53.60
65231;DHT22;51813;40.666;16.602;2023-08-24T06:39:15;27.40;53.40
65231;DHT22;51813;40.666;16.602;2023-08-24T06:41:41;27.40;54.10
65231;DHT22;51813;40.666;16.602;2023-08-24T06:44:07;27.40;53.70
65231;DHT22;51813;40.666;16.602;2023-08-24T06:46:33;27.40;53.90
65231;DHT22;51813;40.666;16.602;2023-08-24T06:48:58;27.40;53.80
65231;DHT22;51813;40.666;16.602;2023-08-24T06:51:26;27.40;53.80
65231;DHT22;51813;40.666;16.602;2023-08-24T06:53:51;27.50;54.40
65231;DHT22;51813;40.666;16.602;2023-08-24T06:56:17;27.50;53.80
65231;DHT22;51813;40.666;16.602;2023-08-24T06:58:44;27.40;53.80
65231;DHT22;51813;40.666;16.602;2023-08-24T07:01:10;27.40;53.70
65231;DHT22;51813;40.666;16.602;2023-08-24T07:03:37;27.40;53.70
65231;DHT22;51813;40.666;16.602;2023-08-24T07:06:05;27.40;53.70
65231;DHT22;51813;40.666;16.602;2023-08-24T07:08:31;27.50;53.70
65231;DHT22;51813;40.666;16.602;2023-08-24T07:10:56;27.50;53.50
65231;DHT22;51813;40.666;16.602;2023-08-24T07:13:22;27.50;53.50
65231;DHT22;51813;40.666;16.602;2023-08-24T07:15:48;27.60;53.60
65231;DHT22;51813;40.666;16.602;2023-08-24T07:18:13;27.60;53.40
65231;DHT22;51813;40.666;16.602;2023-08-24T07:20:39;27.60;53.10
65231;DHT22;51813;40.666;16.602;2023-08-24T07:23:05;27.70;53.40
65231;DHT22;51813;40.666;16.602;2023-08-24T07:25:30;27.80;52.90
65231;DHT22;51813;40.666;16.602;2023-08-24T07:27:57;27.90;52.00
65231;DHT22;51813;40.666;16.602;2023-08-24T07:30:26;27.90;52.00
65231;DHT22;51813;40.666;16.602;2023-08-24T07:32:53;28.00;52.10
65231;DHT22;51813;40.666;16.602;2023-08-24T07:35:19;28.10;52.10
65231;DHT22;51813;40.666;16.602;2023-08-24T07:37:47;28.30;51.10
65231;DHT22;51813;40.666;16.602;2023-08-24T07:40:14;28.30;51.00
65231;DHT22;51813;40.666;16.602;2023-08-24T07:42:46;28.50;50.90
65231;DHT22;51813;40.666;16.602;2023-08-24T07:45:13;28.60;49.50
65231;DHT22;51813;40.666;16.602;2023-08-24T07:47:40;28.70;49.60
65231;DHT22;51813;40.666;16.602;2023-08-24T07:50:06;28.80;50.50
65231;DHT22;51813;40.666;16.602;2023-08-24T07:52:32;29.00;50.20
65231;DHT22;51813;40.666;16.602;2023-08-24T07:54:58;29.10;49.50
65231;DHT22;51813;40.666;16.602;2023-08-24T07:57:25;29.20;49.80
65231;DHT22;51813;40.666;16.602;2023-08-24T07:59:54;29.20;48.70
65231;DHT22;51813;40.666;16.602;2023-08-24T08:02:19;29.30;49.40
65231;DHT22;51813;40.666;16.602;2023-08-24T08:04:46;29.30;49.40
65231;DHT22;51813;40.666;16.602;2023-08-24T08:07:11;29.30;49.60
65231;DHT22;51813;40.666;16.602;2023-08-24T08:09:38;29.40;49.40
65231;DHT22;51813;40.666;16.602;2023-08-24T08:12:04;29.40;49.20
65231;DHT22;51813;40.666;16.602;2023-08-24T08:14:30;29.50;48.30
65231;DHT22;51813;40.666;16.602;2023-08-24T08:16:56;29.50;48.70
65231;DHT22;51813;40.666;16.602;2023-08-24T08:19:22;29.50;48.50
65231;DHT22;51813;40.666;16.602;2023-08-24T08:21:50;29.40;49.30
65231;DHT22;51813;40.666;16.602;2023-08-24T08:24:16;29.50;47.00
65231;DHT22;51813;40.666;16.602;2023-08-24T08:26:42;29.50;45.50
65231;DHT22;51813;40.666;16.602;2023-08-24T08:29:08;29.50;46.60
65231;DHT22;51813;40.666;16.602;2023-08-24T08:31:34;29.50;45.80
65231;DHT22;51813;40.666;16.602;2023-08-24T08:33:59;29.40;46.50
65231;DHT22;51813;40.666;16.602;2023-08-24T08:36:25;29.50;45.30
65231;DHT22;51813;40.666;16.602;2023-08-24T08:38:51;29.60;45.00
65231;DHT22;51813;40.666;16.602;2023-08-24T08:41:17;29.60;46.10
65231;DHT22;51813;40.666;16.602;2023-08-24T08:43:47;29.60;44.30
65231;DHT22;51813;40.666;16.602;2023-08-24T08:46:12;29.60;45.60
65231;DHT22;51813;40.666;16.602;2023-08-24T08:48:41;29.60;45.40
65231;DHT22;51813;40.666;16.602;2023-08-24T08:51:07;29.50;44.50
65231;DHT22;51813;40.666;16.602;2023-08-24T08:53:34;29.60;44.90
65231;DHT22;51813;40.666;16.602;2023-08-24T08:56:01;29.60;44.80
65231;DHT22;51813;40.666;16.602;2023-08-24T08:58:31;29.60;44.30
65231;DHT22;51813;40.666;16.602;2023-08-24T09:00:57;29.70;44.10
65231;DHT22;51813;40.666;16.602;2023-08-24T09:03:26;29.80;44.30
65231;DHT22;51813;40.666;16.602;2023-08-24T09:05:53;29.80;44.00
65231;DHT22;51813;40.666;16.602;2023-08-24T09:08:20;29.80;44.20
65231;DHT22;51813;40.666;16.602;2023-08-24T09:10:46;29.90;43.90
65231;DHT22;51813;40.666;16.602;2023-08-24T09:13:12;29.90;43.90
65231;DHT22;51813;40.666;16.602;2023-08-24T09:15:38;30.00;44.40
65231;DHT22;51813;40.666;16.602;2023-08-24T09:18:04;30.10;44.00
65231;DHT22;51813;40.666;16.602;2023-08-24T09:20:30;30.10;43.40
65231;DHT22;51813;40.666;16.602;2023-08-24T09:22:56;30.10;43.20
65231;DHT22;51813;40.666;16.602;2023-08-24T09:25:25;30.10;43.50
65231;DHT22;51813;40.666;16.602;2023-08-24T09:28:01;30.20;43.90
65231;DHT22;51813;40.666;16.602;2023-08-24T09:30:34;30.20;43.60
65231;DHT22;51813;40.666;16.602;2023-08-24T09:33:09;30.30;42.90
65231;DHT22;51813;40.666;16.602;2023-08-24T09:35:36;30.20;42.80
65231;DHT22;51813;40.666;16.602;2023-08-24T09:38:18;30.20;43.00
65231;DHT22;51813;40.666;16.602;2023-08-24T09:40:51;30.20;43.50
65231;DHT22;51813;40.666;16.602;2023-08-24T09:43:17;30.30;43.50
65231;DHT22;51813;40.666;16.602;2023-08-24T09:45:49;30.30;42.50
65231;DHT22;51813;40.666;16.602;2023-08-24T09:48:15;30.30;43.20
65231;DHT22;51813;40.666;16.602;2023-08-24T09:50:46;30.40;42.40
65231;DHT22;51813;40.666;16.602;2023-08-24T09:53:20;30.40;42.30
65231;DHT22;51813;40.666;16.602;2023-08-24T09:58:19;30.60;42.80
65231;DHT22;51813;40.666;16.602;2023-08-24T10:00:46;30.50;42.40
65231;DHT22;51813;40.666;16.602;2023-08-24T10:03:16;30.60;42.10
65231;DHT22;51813;40.666;16.602;2023-08-24T10:05:55;30.50;42.50
65231;DHT22;51813;40.666;16.602;2023-08-24T10:08:34;30.70;42.10
65231;DHT22;51813;40.666;16.602;2023-08-24T10:11:00;30.60;42.00
65231;DHT22;51813;40.666;16.602;2023-08-24T10:13:41;30.70;41.30
65231;DHT22;51813;40.666;16.602;2023-08-24T10:16:10;30.70;42.90
65231;DHT22;51813;40.666;16.602;2023-08-24T10:18:40;30.70;42.50
65231;DHT22;51813;40.666;16.602;2023-08-24T10:21:07;30.70;42.70
65231;DHT22;51813;40.666;16.602;2023-08-24T10:23:34;30.70;42.40
65231;DHT22;51813;40.666;16.602;2023-08-24T10:26:03;30.70;42.60
65231;DHT22;51813;40.666;16.602;2023-08-24T10:28:29;30.70;41.80
65231;DHT22;51813;40.666;16.602;2023-08-24T10:30:59;30.70;42.70
65231;DHT22;51813;40.666;16.602;2023-08-24T10:33:26;30.80;42.30
65231;DHT22;51813;40.666;16.602;2023-08-24T10:35:53;30.70;42.10
65231;DHT22;51813;40.666;16.602;2023-08-24T10:38:26;30.60;43.20
65231;DHT22;51813;40.666;16.602;2023-08-24T10:40:53;30.60;41.50
65231;DHT22;51813;40.666;16.602;2023-08-24T10:43:19;30.60;43.20
65231;DHT22;51813;40.666;16.602;2023-08-24T10:45:59;30.60;42.80
65231;DHT22;51813;40.666;16.602;2023-08-24T10:48:56;30.60;44.00
65231;DHT22;51813;40.666;16.602;2023-08-24T10:56:24;30.40;41.30
65231;DHT22;51813;40.666;16.602;2023-08-24T10:59:12;30.40;42.10
65231;DHT22;51813;40.666;16.602;2023-08-24T11:01:43;30.40;41.30
65231;DHT22;51813;40.666;16.602;2023-08-24T11:04:10;30.40;41.70
65231;DHT22;51813;40.666;16.602;2023-08-24T11:09:20;30.30;40.60
65231;DHT22;51813;40.666;16.602;2023-08-24T11:11:56;30.30;41.10
65231;DHT22;51813;40.666;16.602;2023-08-24T11:14:23;30.30;41.70
65231;DHT22;51813;40.666;16.602;2023-08-24T11:16:52;30.30;41.30
65231;DHT22;51813;40.666;16.602;2023-08-24T11:19:18;30.10;41.80
65231;DHT22;51813;40.666;16.602;2023-08-24T11:21:45;30.00;42.30
65231;DHT22;51813;40.666;16.602;2023-08-24T11:24:15;29.90;43.00
65231;DHT22;51813;40.666;16.602;2023-08-24T11:26:46;29.80;43.40
65231;DHT22;51813;40.666;16.602;2023-08-24T11:29:12;29.80;43.00
65231;DHT22;51813;40.666;16.602;2023-08-24T11:31:39;29.80;43.70
65231;DHT22;51813;40.666;16.602;2023-08-24T11:34:06;29.70;43.70
65231;DHT22;51813;40.666;16.602;2023-08-24T11:36:42;29.70;44.20
65231;DHT22;51813;40.666;16.602;2023-08-24T11:39:22;29.70;44.30
65231;DHT22;51813;40.666;16.602;2023-08-24T11:42:03;29.60;44.40
65231;DHT22;51813;40.666;16.602;2023-08-24T11:44:44;29.70;43.70
65231;DHT22;51813;40.666;16.602;2023-08-24T11:47:10;29.80;43.70
65231;DHT22;51813;40.666;16.602;2023-08-24T11:49:35;29.80;43.80
65231;DHT22;51813;40.666;16.602;2023-08-24T11:52:02;30.00;44.10
65231;DHT22;51813;40.666;16.602;2023-08-24T11:54:27;30.00;44.60
65231;DHT22;51813;40.666;16.602;2023-08-24T11:56:53;30.00;44.10
65231;DHT22;51813;40.666;16.602;2023-08-24T11:59:19;30.00;43.30
65231;DHT22;51813;40.666;16.602;2023-08-24T12:01:47;30.10;43.80
65231;DHT22;51813;40.666;16.602;2023-08-24T12:04:13;30.20;44.20
65231;DHT22;51813;40.666;16.602;2023-08-24T12:06:38;30.20;44.20
65231;DHT22;51813;40.666;16.602;2023-08-24T12:09:05;30.30;42.50
65231;DHT22;51813;40.666;16.602;2023-08-24T12:11:36;30.30;43.20
65231;DHT22;51813;40.666;16.602;2023-08-24T12:14:01;30.30;42.90
65231;DHT22;51813;40.666;16.602;2023-08-24T12:16:31;30.20;43.40
65231;DHT22;51813;40.666;16.602;2023-08-24T12:18:58;30.30;43.00
65231;DHT22;51813;40.666;16.602;2023-08-24T12:21:31;30.30;42.70
65231;DHT22;51813;40.666;16.602;2023-08-24T12:24:07;30.30;44.20
65231;DHT22;51813;40.666;16.602;2023-08-24T12:26:34;30.30;43.00
65231;DHT22;51813;40.666;16.602;2023-08-24T12:29:04;30.30;43.30
65231;DHT22;51813;40.666;16.602;2023-08-24T12:31:33;30.30;43.50
65231;DHT22;51813;40.666;16.602;2023-08-24T12:34:03;30.40;44.40
65231;DHT22;51813;40.666;16.602;2023-08-24T12:36:33;30.40;43.00
65231;DHT22;51813;40.666;16.602;2023-08-24T12:39:01;30.50;43.50
65231;DHT22;51813;40.666;16.602;2023-08-24T12:41:29;30.50;42.50
65231;DHT22;51813;40.666;16.602;2023-08-24T12:43:55;30.40;43.60
65231;DHT22;51813;40.666;16.602;2023-08-24T12:46:20;30.40;44.20
65231;DHT22;51813;40.666;16.602;2023-08-24T12:48:46;30.30;43.60
65231;DHT22;51813;40.666;16.602;2023-08-24T12:51:12;30.40;43.80
65231;DHT22;51813;40.666;16.602;2023-08-24T12:53:38;30.40;42.90
65231;DHT22;51813;40.666;16.602;2023-08-24T12:56:03;30.60;44.20
65231;DHT22;51813;40.666;16.602;2023-08-24T12:58:29;30.70;44.10
65231;DHT22;51813;40.666;16.602;2023-08-24T13:00:55;30.70;43.40
65231;DHT22;51813;40.666;16.602;2023-08-24T13:03:21;30.50;44.10
65231;DHT22;51813;40.666;16.602;2023-08-24T13:05:47;30.50;42.80
65231;DHT22;51813;40.666;16.602;2023-08-24T13:08:13;30.60;43.40
65231;DHT22;51813;40.666;16.602;2023-08-24T13:10:39;30.70;43.60
65231;DHT22;51813;40.666;16.602;2023-08-24T13:13:04;30.70;43.10
65231;DHT22;51813;40.666;16.602;2023-08-24T13:15:30;30.70;42.70
65231;DHT22;51813;40.666;16.602;2023-08-24T13:17:56;30.70;43.50
65231;DHT22;51813;40.666;16.602;2023-08-24T13:20:24;30.60;42.60
65231;DHT22;51813;40.666;16.602;2023-08-24T13:22:51;30.60;42.60
65231;DHT22;51813;40.666;16.602;2023-08-24T13:25:17;30.60;42.30
65231;DHT22;51813;40.666;16.602;2023-08-24T13:27:43;30.70;43.10
65231;DHT22;51813;40.666;16.602;2023-08-24T13:30:09;30.80;43.20
65231;DHT22;51813;40.666;16.602;2023-08-24T13:32:35;30.80;43.20
65231;DHT22;51813;40.666;16.602;2023-08-24T13:35:01;30.90;42.00
65231;DHT22;51813;40.666;16.602;2023-08-24T13:37:27;31.00;40.80
65231;DHT22;51813;40.666;16.602;2023-08-24T13:39:52;31.20;41.30
65231;DHT22;51813;40.666;16.602;2023-08-24T13:42:18;31.20;41.40
65231;DHT22;51813;40.666;16.602;2023-08-24T13:44:45;31.20;40.70
65231;DHT22;51813;40.666;16.602;2023-08-24T13:47:11;31.40;40.40
65231;DHT22;51813;40.666;16.602;2023-08-24T13:49:37;31.50;40.70
65231;DHT22;51813;40.666;16.602;2023-08-24T13:52:03;31.40;39.20
65231;DHT22;51813;40.666;16.602;2023-08-24T13:54:29;31.40;39.80
65231;DHT22;51813;40.666;16.602;2023-08-24T13:56:56;31.40;39.80
65231;DHT22;51813;40.666;16.602;2023-08-24T13:59:22;31.40;39.80
65231;DHT22;51813;40.666;16.602;2023-08-24T14:01:47;31.50;39.50
65231;DHT22;51813;40.666;16.602;2023-08-24T14:04:13;31.50;40.30
65231;DHT22;51813;40.666;16.602;2023-08-24T14:06:39;31.50;39.40
65231;DHT22;51813;40.666;16.602;2023-08-24T14:09:05;31.50;39.70
65231;DHT22;51813;40.666;16.602;2023-08-24T14:11:32;31.50;39.60
65231;DHT22;51813;40.666;16.602;2023-08-24T14:13:58;31.40;39.60
65231;DHT22;51813;40.666;16.602;2023-08-24T14:16:25;31.40;39.60
65231;DHT22;51813;40.666;16.602;2023-08-24T14:18:52;31.50;39.90
65231;DHT22;51813;40.666;16.602;2023-08-24T14:21:18;31.60;40.10
65231;DHT22;51813;40.666;16.602;2023-08-24T14:23:45;31.50;40.20
65231;DHT22;51813;40.666;16.602;2023-08-24T14:26:12;31.60;40.30
65231;DHT22;51813;40.666;16.602;2023-08-24T14:28:55;31.60;40.10
65231;DHT22;51813;40.666;16.602;2023-08-24T14:31:23;31.60;40.00
65231;DHT22;51813;40.666;16.602;2023-08-24T14:33:49;31.60;40.10
65231;DHT22;51813;40.666;16.602;2023-08-24T14:36:16;31.50;40.80
65231;DHT22;51813;40.666;16.602;2023-08-24T14:38:41;31.50;40.20
65231;DHT22;51813;40.666;16.602;2023-08-24T14:41:09;31.60;40.80
65231;DHT22;51813;40.666;16.602;2023-08-24T14:43:35;31.60;41.50
65231;DHT22;51813;40.666;16.602;2023-08-24T14:46:01;31.60;40.70
65231;DHT22;51813;40.666;16.602;2023-08-24T14:48:26;31.60;40.00
65231;DHT22;51813;40.666;16.602;2023-08-24T14:50:52;31.60;41.10
65231;DHT22;51813;40.666;16.602;2023-08-24T14:53:18;31.60;40.90
65231;DHT22;51813;40.666;16.602;2023-08-24T14:55:44;31.70;40.50
65231;DHT22;51813;40.666;16.602;2023-08-24T14:58:10;31.60;40.50
65231;DHT22;51813;40.666;16.602;2023-08-24T15:00:35;31.60;40.50
65231;DHT22;51813;40.666;16.602;2023-08-24T15:03:01;31.60;40.40
65231;DHT22;51813;40.666;16.602;2023-08-24T15:05:27;31.60;40.50
65231;DHT22;51813;40.666;16.602;2023-08-24T15:07:53;31.70;39.70
65231;DHT22;51813;40.666;16.602;2023-08-24T15:10:19;31.70;38.70
65231;DHT22;51813;40.666;16.602;2023-08-24T15:12:48;31.60;40.10
65231;DHT22;51813;40.666;16.602;2023-08-24T15:15:14;31.50;39.70
65231;DHT22;51813;40.666;16.602;2023-08-24T15:17:43;31.50;39.90
65231;DHT22;51813;40.666;16.602;2023-08-24T15:20:13;31.50;40.00
65231;DHT22;51813;40.666;16.602;2023-08-24T15:22:39;31.40;40.30
65231;DHT22;51813;40.666;16.602;2023-08-24T15:25:05;31.20;40.80
65231;DHT22;51813;40.666;16.602;2023-08-24T15:27:31;31.20;40.30
65231;DHT22;51813;40.666;16.602;2023-08-24T15:29:57;31.30;40.90